sensor_id;sensor_type;location;lat;lon;timestamp;P1;durP1;ratioP1;P2;durP2;ratioP2
56911;SDS011;42800;53.928;27.662;2023-11-22T00:01:44;2.33;;;1.55;;
56911;SDS011;42800;53.928;27.662;2023-11-22T00:04:14;4.45;;;1.80;;
56911;SDS011;42800;53.928;27.662;2023-11-22T00:06:40;4.60;;;2.30;;
56911;SDS011;42800;53.928;27.662;2023-11-22T00:09:06;3.45;;;2.38;;
56911;SDS011;42800;53.928;27.662;2023-11-22T00:11:33;3.88;;;1.70;;
56911;SDS011;42800;53.928;27.662;2023-11-22T00:13:59;3.58;;;2.03;;
56911;SDS011;42800;53.928;27.662;2023-11-22T00:16:26;4.05;;;2.45;;
56911;SDS011;42800;53.928;27.662;2023-11-22T00:18:53;4.15;;;2.55;;
56911;SDS011;42800;53.928;27.662;2023-11-22T00:21:19;18.80;;;2.50;;
56911;SDS011;42800;53.928;27.662;2023-11-22T00:23:45;2.42;;;1.95;;
56911;SDS011;42800;53.928;27.662;2023-11-22T00:26:12;5.05;;;2.70;;
56911;SDS011;42800;53.928;27.662;2023-11-22T00:28:38;5.13;;;2.38;;
56911;SDS011;42800;53.928;27.662;2023-11-22T00:31:04;3.15;;;1.95;;
56911;SDS011;42800;53.928;27.662;2023-11-22T00:33:31;3.08;;;2.25;;
56911;SDS011;42800;53.928;27.662;2023-11-22T00:35:58;3.03;;;1.90;;
56911;SDS011;42800;53.928;27.662;2023-11-22T00:38:24;4.30;;;1.70;;
56911;SDS011;42800;53.928;27.662;2023-11-22T00:40:50;3.35;;;1.52;;
56911;SDS011;42800;53.928;27.662;2023-11-22T00:43:17;2.15;;;1.90;;
56911;SDS011;42800;53.928;27.662;2023-11-22T00:45:44;3.53;;;2.30;;
56911;SDS011;42800;53.928;27.662;2023-11-22T00:48:10;3.72;;;2.25;;
56911;SDS011;42800;53.928;27.662;2023-11-22T00:50:37;2.60;;;1.95;;
56911;SDS011;42800;53.928;27.662;2023-11-22T00:53:04;5.38;;;2.50;;
56911;SDS011;42800;53.928;27.662;2023-11-22T00:55:30;3.70;;;2.22;;
56911;SDS011;42800;53.928;27.662;2023-11-22T00:57:57;5.07;;;2.30;;
56911;SDS011;42800;53.928;27.662;2023-11-22T01:00:28;2.47;;;1.90;;
56911;SDS011;42800;53.928;27.662;2023-11-22T01:02:55;3.08;;;1.80;;
56911;SDS011;42800;53.928;27.662;2023-11-22T01:05:21;3.28;;;1.48;;
56911;SDS011;42800;53.928;27.662;2023-11-22T01:07:47;5.20;;;2.53;;
56911;SDS011;42800;53.928;27.662;2023-11-22T01:10:15;7.07;;;2.55;;
56911;SDS011;42800;53.928;27.662;2023-11-22T01:12:41;5.85;;;2.20;;
56911;SDS011;42800;53.928;27.662;2023-11-22T01:15:08;8.00;;;2.58;;
56911;SDS011;42800;53.928;27.662;2023-11-22T01:17:35;4.50;;;2.20;;
56911;SDS011;42800;53.928;27.662;2023-11-22T01:20:01;4.05;;;2.30;;
56911;SDS011;42800;53.928;27.662;2023-11-22T01:22:28;2.70;;;2.17;;
56911;SDS011;42800;53.928;27.662;2023-11-22T01:24:56;3.13;;;2.35;;
56911;SDS011;42800;53.928;27.662;2023-11-22T01:27:23;3.10;;;2.38;;
56911;SDS011;42800;53.928;27.662;2023-11-22T01:29:50;4.53;;;2.50;;
56911;SDS011;42800;53.928;27.662;2023-11-22T01:32:16;3.67;;;2.13;;
56911;SDS011;42800;53.928;27.662;2023-11-22T01:34:43;3.95;;;2.78;;
56911;SDS011;42800;53.928;27.662;2023-11-22T01:37:09;4.88;;;2.33;;
56911;SDS011;42800;53.928;27.662;2023-11-22T01:39:37;6.97;;;2.63;;
56911;SDS011;42800;53.928;27.662;2023-11-22T01:42:06;4.13;;;2.45;;
56911;SDS011;42800;53.928;27.662;2023-11-22T01:44:33;5.55;;;2.60;;
56911;SDS011;42800;53.928;27.662;2023-11-22T01:46:59;5.57;;;2.92;;
56911;SDS011;42800;53.928;27.662;2023-11-22T01:49:25;4.30;;;2.38;;
56911;SDS011;42800;53.928;27.662;2023-11-22T01:51:52;6.38;;;2.83;;
56911;SDS011;42800;53.928;27.662;2023-11-22T01:54:19;4.63;;;2.75;;
56911;SDS011;42800;53.928;27.662;2023-11-22T01:56:48;3.03;;;2.72;;
56911;SDS011;42800;53.928;27.662;2023-11-22T01:59:15;5.20;;;2.97;;
56911;SDS011;42800;53.928;27.662;2023-11-22T02:01:43;6.03;;;3.60;;
56911;SDS011;42800;53.928;27.662;2023-11-22T02:04:09;9.27;;;2.47;;
56911;SDS011;42800;53.928;27.662;2023-11-22T02:06:37;6.65;;;3.28;;
56911;SDS011;42800;53.928;27.662;2023-11-22T02:09:04;6.40;;;3.40;;
56911;SDS011;42800;53.928;27.662;2023-11-22T02:11:30;7.65;;;3.25;;
56911;SDS011;42800;53.928;27.662;2023-11-22T02:13:56;8.02;;;3.20;;
56911;SDS011;42800;53.928;27.662;2023-11-22T02:16:22;6.90;;;3.22;;
56911;SDS011;42800;53.928;27.662;2023-11-22T02:18:50;5.78;;;3.42;;
56911;SDS011;42800;53.928;27.662;2023-11-22T02:21:16;7.40;;;3.47;;
56911;SDS011;42800;53.928;27.662;2023-11-22T02:23:43;4.88;;;3.42;;
56911;SDS011;42800;53.928;27.662;2023-11-22T02:26:09;7.50;;;3.88;;
56911;SDS011;42800;53.928;27.662;2023-11-22T02:28:35;4.15;;;2.92;;
56911;SDS011;42800;53.928;27.662;2023-11-22T02:31:03;6.95;;;2.97;;
56911;SDS011;42800;53.928;27.662;2023-11-22T02:33:29;8.10;;;3.90;;
56911;SDS011;42800;53.928;27.662;2023-11-22T02:35:55;7.28;;;3.70;;
56911;SDS011;42800;53.928;27.662;2023-11-22T02:38:22;8.52;;;4.30;;
56911;SDS011;42800;53.928;27.662;2023-11-22T02:40:52;3.85;;;3.08;;
56911;SDS011;42800;53.928;27.662;2023-11-22T02:43:19;5.90;;;3.42;;
56911;SDS011;42800;53.928;27.662;2023-11-22T02:45:46;8.02;;;3.65;;
56911;SDS011;42800;53.928;27.662;2023-11-22T02:48:12;5.03;;;3.30;;
56911;SDS011;42800;53.928;27.662;2023-11-22T02:50:38;6.35;;;2.72;;
56911;SDS011;42800;53.928;27.662;2023-11-22T02:53:08;5.18;;;2.92;;
56911;SDS011;42800;53.928;27.662;2023-11-22T02:55:34;7.35;;;4.00;;
56911;SDS011;42800;53.928;27.662;2023-11-22T02:58:01;8.68;;;4.47;;
56911;SDS011;42800;53.928;27.662;2023-11-22T03:00:28;9.88;;;4.60;;
56911;SDS011;42800;53.928;27.662;2023-11-22T03:02:54;7.00;;;3.45;;
56911;SDS011;42800;53.928;27.662;2023-11-22T03:05:21;4.55;;;3.20;;
56911;SDS011;42800;53.928;27.662;2023-11-22T03:07:48;6.85;;;4.18;;
56911;SDS011;42800;53.928;27.662;2023-11-22T03:10:16;6.80;;;4.03;;
56911;SDS011;42800;53.928;27.662;2023-11-22T03:12:43;7.95;;;4.88;;
56911;SDS011;42800;53.928;27.662;2023-11-22T03:15:10;7.30;;;4.55;;
56911;SDS011;42800;53.928;27.662;2023-11-22T03:17:37;12.52;;;5.28;;
56911;SDS011;42800;53.928;27.662;2023-11-22T03:20:04;10.32;;;4.95;;
56911;SDS011;42800;53.928;27.662;2023-11-22T03:22:34;6.57;;;4.80;;
56911;SDS011;42800;53.928;27.662;2023-11-22T03:25:01;6.30;;;4.20;;
56911;SDS011;42800;53.928;27.662;2023-11-22T03:27:28;8.18;;;4.45;;
56911;SDS011;42800;53.928;27.662;2023-11-22T03:29:55;8.50;;;4.22;;
56911;SDS011;42800;53.928;27.662;2023-11-22T03:32:22;10.25;;;4.97;;
56911;SDS011;42800;53.928;27.662;2023-11-22T03:34:48;8.43;;;4.45;;
56911;SDS011;42800;53.928;27.662;2023-11-22T03:37:14;10.35;;;5.35;;
56911;SDS011;42800;53.928;27.662;2023-11-22T03:39:40;9.25;;;4.85;;
56911;SDS011;42800;53.928;27.662;2023-11-22T03:42:13;8.45;;;4.60;;
56911;SDS011;42800;53.928;27.662;2023-11-22T03:44:39;10.13;;;5.38;;
56911;SDS011;42800;53.928;27.662;2023-11-22T03:47:05;5.65;;;3.85;;
56911;SDS011;42800;53.928;27.662;2023-11-22T03:49:32;9.93;;;5.30;;
56911;SDS011;42800;53.928;27.662;2023-11-22T03:51:59;9.63;;;4.47;;
56911;SDS011;42800;53.928;27.662;2023-11-22T03:54:25;9.25;;;4.70;;
56911;SDS011;42800;53.928;27.662;2023-11-22T03:56:52;7.00;;;4.28;;
56911;SDS011;42800;53.928;27.662;2023-11-22T03:59:18;8.70;;;4.75;;
56911;SDS011;42800;53.928;27.662;2023-11-22T04:01:44;10.57;;;4.90;;
56911;SDS011;42800;53.928;27.662;2023-11-22T04:04:11;9.02;;;4.85;;
56911;SDS011;42800;53.928;27.662;2023-11-22T04:06:38;6.13;;;3.70;;
56911;SDS011;42800;53.928;27.662;2023-11-22T04:09:04;8.20;;;4.60;;
56911;SDS011;42800;53.928;27.662;2023-11-22T04:11:30;7.55;;;4.65;;
56911;SDS011;42800;53.928;27.662;2023-11-22T04:13:57;7.38;;;4.70;;
56911;SDS011;42800;53.928;27.662;2023-11-22T04:16:23;9.85;;;5.25;;
56911;SDS011;42800;53.928;27.662;2023-11-22T04:18:49;7.43;;;4.32;;
56911;SDS011;42800;53.928;27.662;2023-11-22T04:21:15;8.75;;;4.15;;
56911;SDS011;42800;53.928;27.662;2023-11-22T04:23:42;8.05;;;3.83;;
56911;SDS011;42800;53.928;27.662;2023-11-22T04:26:09;9.80;;;4.95;;
56911;SDS011;42800;53.928;27.662;2023-11-22T04:28:36;11.45;;;4.40;;
56911;SDS011;42800;53.928;27.662;2023-11-22T04:31:02;7.43;;;4.35;;
56911;SDS011;42800;53.928;27.662;2023-11-22T04:33:29;7.18;;;4.03;;
56911;SDS011;42800;53.928;27.662;2023-11-22T04:35:55;6.85;;;4.18;;
56911;SDS011;42800;53.928;27.662;2023-11-22T04:38:22;7.25;;;3.85;;
56911;SDS011;42800;53.928;27.662;2023-11-22T04:40:49;7.75;;;3.80;;
56911;SDS011;42800;53.928;27.662;2023-11-22T04:43:15;8.70;;;4.43;;
56911;SDS011;42800;53.928;27.662;2023-11-22T04:45:41;7.65;;;4.75;;
56911;SDS011;42800;53.928;27.662;2023-11-22T04:48:08;7.35;;;4.70;;
56911;SDS011;42800;53.928;27.662;2023-11-22T04:50:35;5.03;;;3.45;;
56911;SDS011;42800;53.928;27.662;2023-11-22T04:53:01;5.68;;;3.88;;
56911;SDS011;42800;53.928;27.662;2023-11-22T04:55:27;8.23;;;4.10;;
56911;SDS011;42800;53.928;27.662;2023-11-22T04:57:54;8.38;;;4.03;;
56911;SDS011;42800;53.928;27.662;2023-11-22T05:00:21;7.63;;;4.57;;
56911;SDS011;42800;53.928;27.662;2023-11-22T05:02:48;5.65;;;3.42;;
56911;SDS011;42800;53.928;27.662;2023-11-22T05:05:14;2.67;;;2.15;;
56911;SDS011;42800;53.928;27.662;2023-11-22T05:07:40;6.03;;;2.75;;
56911;SDS011;42800;53.928;27.662;2023-11-22T05:10:07;6.18;;;2.60;;
56911;SDS011;42800;53.928;27.662;2023-11-22T05:12:34;3.25;;;2.63;;
56911;SDS011;42800;53.928;27.662;2023-11-22T05:15:01;4.25;;;2.83;;
56911;SDS011;42800;53.928;27.662;2023-11-22T05:17:28;5.95;;;2.72;;
56911;SDS011;42800;53.928;27.662;2023-11-22T05:19:55;4.22;;;2.47;;
56911;SDS011;42800;53.928;27.662;2023-11-22T05:22:21;4.63;;;2.42;;
56911;SDS011;42800;53.928;27.662;2023-11-22T05:24:48;5.90;;;3.10;;
56911;SDS011;42800;53.928;27.662;2023-11-22T05:27:14;4.10;;;2.88;;
56911;SDS011;42800;53.928;27.662;2023-11-22T05:29:41;3.60;;;2.42;;
56911;SDS011;42800;53.928;27.662;2023-11-22T05:32:08;5.97;;;2.58;;
56911;SDS011;42800;53.928;27.662;2023-11-22T05:34:35;7.38;;;2.38;;
56911;SDS011;42800;53.928;27.662;2023-11-22T05:37:01;5.75;;;3.00;;
56911;SDS011;42800;53.928;27.662;2023-11-22T05:39:27;3.33;;;2.35;;
56911;SDS011;42800;53.928;27.662;2023-11-22T05:41:53;6.15;;;3.25;;
56911;SDS011;42800;53.928;27.662;2023-11-22T05:44:21;4.40;;;3.00;;
56911;SDS011;42800;53.928;27.662;2023-11-22T05:46:48;3.55;;;2.13;;
56911;SDS011;42800;53.928;27.662;2023-11-22T05:49:15;3.28;;;2.17;;
56911;SDS011;42800;53.928;27.662;2023-11-22T05:51:41;2.67;;;2.00;;
56911;SDS011;42800;53.928;27.662;2023-11-22T05:54:07;3.22;;;2.22;;
56911;SDS011;42800;53.928;27.662;2023-11-22T05:56:34;3.35;;;2.17;;
56911;SDS011;42800;53.928;27.662;2023-11-22T05:59:00;2.05;;;1.67;;
56911;SDS011;42800;53.928;27.662;2023-11-22T06:01:26;3.70;;;2.28;;
56911;SDS011;42800;53.928;27.662;2023-11-22T06:03:52;6.65;;;2.72;;
56911;SDS011;42800;53.928;27.662;2023-11-22T06:06:19;2.35;;;2.10;;
56911;SDS011;42800;53.928;27.662;2023-11-22T06:08:46;5.22;;;1.92;;
56911;SDS011;42800;53.928;27.662;2023-11-22T06:11:13;3.22;;;2.40;;
56911;SDS011;42800;53.928;27.662;2023-11-22T06:13:40;3.20;;;2.08;;
56911;SDS011;42800;53.928;27.662;2023-11-22T06:16:07;2.25;;;1.77;;
56911;SDS011;42800;53.928;27.662;2023-11-22T06:18:34;4.03;;;2.10;;
56911;SDS011;42800;53.928;27.662;2023-11-22T06:21:05;4.35;;;2.28;;
56911;SDS011;42800;53.928;27.662;2023-11-22T06:23:32;2.20;;;2.00;;
56911;SDS011;42800;53.928;27.662;2023-11-22T06:25:58;3.88;;;2.13;;
56911;SDS011;42800;53.928;27.662;2023-11-22T06:28:24;3.80;;;2.13;;
56911;SDS011;42800;53.928;27.662;2023-11-22T06:30:51;3.17;;;2.10;;
56911;SDS011;42800;53.928;27.662;2023-11-22T06:33:17;2.30;;;1.52;;
56911;SDS011;42800;53.928;27.662;2023-11-22T06:35:45;3.40;;;1.98;;
56911;SDS011;42800;53.928;27.662;2023-11-22T06:38:11;4.53;;;2.15;;
56911;SDS011;42800;53.928;27.662;2023-11-22T06:40:38;2.35;;;1.52;;
56911;SDS011;42800;53.928;27.662;2023-11-22T06:43:04;2.70;;;1.95;;
56911;SDS011;42800;53.928;27.662;2023-11-22T06:45:32;2.25;;;1.70;;
56911;SDS011;42800;53.928;27.662;2023-11-22T06:47:58;2.40;;;1.40;;
56911;SDS011;42800;53.928;27.662;2023-11-22T06:50:24;5.82;;;1.50;;
56911;SDS011;42800;53.928;27.662;2023-11-22T06:52:50;6.20;;;1.08;;
56911;SDS011;42800;53.928;27.662;2023-11-22T06:55:18;1.52;;;1.42;;
56911;SDS011;42800;53.928;27.662;2023-11-22T06:57:45;3.97;;;2.03;;
56911;SDS011;42800;53.928;27.662;2023-11-22T07:00:12;2.55;;;1.67;;
56911;SDS011;42800;53.928;27.662;2023-11-22T07:02:39;9.73;;;2.22;;
56911;SDS011;42800;53.928;27.662;2023-11-22T07:05:05;1.98;;;1.77;;
56911;SDS011;42800;53.928;27.662;2023-11-22T07:07:33;4.93;;;1.83;;
56911;SDS011;42800;53.928;27.662;2023-11-22T07:10:00;1.60;;;1.50;;
56911;SDS011;42800;53.928;27.662;2023-11-22T07:12:26;2.58;;;1.73;;
56911;SDS011;42800;53.928;27.662;2023-11-22T07:14:53;3.05;;;1.75;;
56911;SDS011;42800;53.928;27.662;2023-11-22T07:17:19;1.92;;;1.70;;
56911;SDS011;42800;53.928;27.662;2023-11-22T07:19:47;1.65;;;1.15;;
56911;SDS011;42800;53.928;27.662;2023-11-22T07:22:14;1.00;;;1.00;;
56911;SDS011;42800;53.928;27.662;2023-11-22T07:24:44;1.60;;;1.00;;
56911;SDS011;42800;53.928;27.662;2023-11-22T07:27:12;3.80;;;1.67;;
56911;SDS011;42800;53.928;27.662;2023-11-22T07:29:39;5.90;;;2.05;;
56911;SDS011;42800;53.928;27.662;2023-11-22T07:32:07;3.60;;;2.05;;
56911;SDS011;42800;53.928;27.662;2023-11-22T07:34:34;1.10;;;1.10;;
56911;SDS011;42800;53.928;27.662;2023-11-22T07:37:00;2.53;;;1.88;;
56911;SDS011;42800;53.928;27.662;2023-11-22T07:39:26;3.70;;;1.77;;
56911;SDS011;42800;53.928;27.662;2023-11-22T07:41:54;4.10;;;2.33;;
56911;SDS011;42800;53.928;27.662;2023-11-22T07:44:21;2.47;;;2.28;;
56911;SDS011;42800;53.928;27.662;2023-11-22T07:46:49;6.38;;;1.50;;
56911;SDS011;42800;53.928;27.662;2023-11-22T07:49:17;4.65;;;1.83;;
56911;SDS011;42800;53.928;27.662;2023-11-22T07:51:44;2.92;;;1.70;;
56911;SDS011;42800;53.928;27.662;2023-11-22T07:54:11;1.77;;;1.63;;
56911;SDS011;42800;53.928;27.662;2023-11-22T07:56:40;5.40;;;1.55;;
56911;SDS011;42800;53.928;27.662;2023-11-22T07:59:08;1.50;;;1.35;;
56911;SDS011;42800;53.928;27.662;2023-11-22T08:01:35;2.95;;;1.10;;
56911;SDS011;42800;53.928;27.662;2023-11-22T08:04:02;1.80;;;1.63;;
56911;SDS011;42800;53.928;27.662;2023-11-22T08:06:29;9.40;;;1.60;;
56911;SDS011;42800;53.928;27.662;2023-11-22T08:08:56;3.25;;;1.00;;
56911;SDS011;42800;53.928;27.662;2023-11-22T08:11:26;2.53;;;1.55;;
56911;SDS011;42800;53.928;27.662;2023-11-22T08:13:53;7.35;;;1.30;;
56911;SDS011;42800;53.928;27.662;2023-11-22T08:16:20;4.28;;;1.67;;
56911;SDS011;42800;53.928;27.662;2023-11-22T08:18:46;3.13;;;1.15;;
56911;SDS011;42800;53.928;27.662;2023-11-22T08:21:13;6.28;;;4.05;;
56911;SDS011;42800;53.928;27.662;2023-11-22T08:23:40;4.68;;;1.98;;
56911;SDS011;42800;53.928;27.662;2023-11-22T08:26:06;3.55;;;1.80;;
56911;SDS011;42800;53.928;27.662;2023-11-22T08:28:33;5.60;;;1.15;;
56911;SDS011;42800;53.928;27.662;2023-11-22T08:31:00;8.32;;;1.85;;
56911;SDS011;42800;53.928;27.662;2023-11-22T08:33:26;2.60;;;1.98;;
56911;SDS011;42800;53.928;27.662;2023-11-22T08:35:53;4.20;;;2.10;;
56911;SDS011;42800;53.928;27.662;2023-11-22T08:38:23;1.13;;;1.02;;
56911;SDS011;42800;53.928;27.662;2023-11-22T08:40:50;1.67;;;1.40;;
56911;SDS011;42800;53.928;27.662;2023-11-22T08:43:17;1.80;;;1.30;;
56911;SDS011;42800;53.928;27.662;2023-11-22T08:45:48;2.25;;;1.30;;
56911;SDS011;42800;53.928;27.662;2023-11-22T08:48:14;1.92;;;1.35;;
56911;SDS011;42800;53.928;27.662;2023-11-22T08:50:41;2.45;;;1.48;;
56911;SDS011;42800;53.928;27.662;2023-11-22T08:53:07;2.25;;;1.27;;
56911;SDS011;42800;53.928;27.662;2023-11-22T08:55:33;11.68;;;1.30;;
56911;SDS011;42800;53.928;27.662;2023-11-22T08:58:00;3.22;;;1.65;;
56911;SDS011;42800;53.928;27.662;2023-11-22T09:00:26;5.10;;;0.90;;
56911;SDS011;42800;53.928;27.662;2023-11-22T09:02:54;2.03;;;1.52;;
56911;SDS011;42800;53.928;27.662;2023-11-22T09:05:20;2.25;;;1.73;;
56911;SDS011;42800;53.928;27.662;2023-11-22T09:07:47;1.80;;;1.00;;
56911;SDS011;42800;53.928;27.662;2023-11-22T09:10:13;2.38;;;1.42;;
56911;SDS011;42800;53.928;27.662;2023-11-22T09:12:40;2.90;;;2.13;;
56911;SDS011;42800;53.928;27.662;2023-11-22T09:15:10;5.35;;;1.48;;
56911;SDS011;42800;53.928;27.662;2023-11-22T09:17:38;2.28;;;1.85;;
56911;SDS011;42800;53.928;27.662;2023-11-22T09:20:08;3.17;;;1.52;;
56911;SDS011;42800;53.928;27.662;2023-11-22T09:22:36;3.80;;;2.03;;
56911;SDS011;42800;53.928;27.662;2023-11-22T09:25:09;2.28;;;1.52;;
56911;SDS011;42800;53.928;27.662;2023-11-22T09:27:36;10.40;;;1.55;;
56911;SDS011;42800;53.928;27.662;2023-11-22T09:30:03;7.53;;;1.35;;
56911;SDS011;42800;53.928;27.662;2023-11-22T09:32:31;1.40;;;1.17;;
56911;SDS011;42800;53.928;27.662;2023-11-22T09:34:58;2.40;;;1.55;;
56911;SDS011;42800;53.928;27.662;2023-11-22T09:37:24;2.90;;;1.25;;
56911;SDS011;42800;53.928;27.662;2023-11-22T09:39:50;2.72;;;2.13;;
56911;SDS011;42800;53.928;27.662;2023-11-22T09:42:17;3.85;;;1.77;;
56911;SDS011;42800;53.928;27.662;2023-11-22T09:44:43;0.85;;;0.85;;
56911;SDS011;42800;53.928;27.662;2023-11-22T09:47:11;4.15;;;2.13;;
56911;SDS011;42800;53.928;27.662;2023-11-22T09:49:38;4.47;;;2.10;;
56911;SDS011;42800;53.928;27.662;2023-11-22T09:52:06;5.63;;;1.88;;
56911;SDS011;42800;53.928;27.662;2023-11-22T09:54:39;1.98;;;1.73;;
56911;SDS011;42800;53.928;27.662;2023-11-22T09:57:06;3.75;;;1.80;;
56911;SDS011;42800;53.928;27.662;2023-11-22T09:59:35;3.42;;;2.05;;
56911;SDS011;42800;53.928;27.662;2023-11-22T10:02:05;1.38;;;1.20;;
56911;SDS011;42800;53.928;27.662;2023-11-22T10:04:32;3.28;;;2.03;;
56911;SDS011;42800;53.928;27.662;2023-11-22T10:07:00;3.97;;;2.25;;
56911;SDS011;42800;53.928;27.662;2023-11-22T10:09:26;3.40;;;2.00;;
56911;SDS011;42800;53.928;27.662;2023-11-22T10:11:57;3.47;;;2.22;;
56911;SDS011;42800;53.928;27.662;2023-11-22T10:14:23;3.30;;;1.63;;
56911;SDS011;42800;53.928;27.662;2023-11-22T10:16:57;2.53;;;2.13;;
56911;SDS011;42800;53.928;27.662;2023-11-22T10:19:25;2.35;;;1.80;;
56911;SDS011;42800;53.928;27.662;2023-11-22T10:22:02;2.20;;;2.00;;
56911;SDS011;42800;53.928;27.662;2023-11-22T10:24:30;9.45;;;1.55;;
56911;SDS011;42800;53.928;27.662;2023-11-22T10:26:57;2.78;;;1.65;;
56911;SDS011;42800;53.928;27.662;2023-11-22T10:29:24;6.28;;;1.75;;
56911;SDS011;42800;53.928;27.662;2023-11-22T10:31:51;5.88;;;2.40;;
56911;SDS011;42800;53.928;27.662;2023-11-22T10:34:18;7.07;;;2.05;;
56911;SDS011;42800;53.928;27.662;2023-11-22T10:36:45;2.75;;;1.85;;
56911;SDS011;42800;53.928;27.662;2023-11-22T10:39:13;5.30;;;2.70;;
56911;SDS011;42800;53.928;27.662;2023-11-22T10:41:41;6.70;;;2.83;;
56911;SDS011;42800;53.928;27.662;2023-11-22T10:44:08;21.65;;;4.60;;
56911;SDS011;42800;53.928;27.662;2023-11-22T10:46:35;4.78;;;2.55;;
56911;SDS011;42800;53.928;27.662;2023-11-22T10:49:05;3.78;;;2.22;;
56911;SDS011;42800;53.928;27.662;2023-11-22T10:51:31;14.35;;;2.40;;
56911;SDS011;42800;53.928;27.662;2023-11-22T10:53:59;5.03;;;2.08;;
56911;SDS011;42800;53.928;27.662;2023-11-22T10:56:27;7.40;;;3.00;;
56911;SDS011;42800;53.928;27.662;2023-11-22T10:58:58;4.88;;;2.15;;
56911;SDS011;42800;53.928;27.662;2023-11-22T11:01:33;3.05;;;2.20;;
56911;SDS011;42800;53.928;27.662;2023-11-22T11:04:00;8.20;;;2.17;;
56911;SDS011;42800;53.928;27.662;2023-11-22T11:06:31;4.82;;;2.47;;
56911;SDS011;42800;53.928;27.662;2023-11-22T11:08:59;5.47;;;2.17;;
56911;SDS011;42800;53.928;27.662;2023-11-22T11:11:25;7.15;;;2.70;;
56911;SDS011;42800;53.928;27.662;2023-11-22T11:13:55;8.30;;;2.47;;
56911;SDS011;42800;53.928;27.662;2023-11-22T11:16:22;2.55;;;2.13;;
56911;SDS011;42800;53.928;27.662;2023-11-22T11:18:49;3.17;;;2.30;;
56911;SDS011;42800;53.928;27.662;2023-11-22T11:21:16;3.17;;;2.30;;
56911;SDS011;42800;53.928;27.662;2023-11-22T11:23:44;5.93;;;2.30;;
56911;SDS011;42800;53.928;27.662;2023-11-22T11:26:14;6.38;;;2.10;;
56911;SDS011;42800;53.928;27.662;2023-11-22T11:28:43;4.55;;;2.38;;
56911;SDS011;42800;53.928;27.662;2023-11-22T11:31:09;6.22;;;2.38;;
56911;SDS011;42800;53.928;27.662;2023-11-22T11:33:52;8.02;;;2.72;;
56911;SDS011;42800;53.928;27.662;2023-11-22T11:36:21;3.08;;;1.95;;
56911;SDS011;42800;53.928;27.662;2023-11-22T11:38:48;3.65;;;2.35;;
56911;SDS011;42800;53.928;27.662;2023-11-22T11:41:15;3.40;;;2.08;;
56911;SDS011;42800;53.928;27.662;2023-11-22T11:43:43;2.33;;;1.63;;
56911;SDS011;42800;53.928;27.662;2023-11-22T11:46:11;3.22;;;1.50;;
56911;SDS011;42800;53.928;27.662;2023-11-22T11:48:37;3.78;;;1.20;;
56911;SDS011;42800;53.928;27.662;2023-11-22T11:51:07;3.75;;;1.85;;
56911;SDS011;42800;53.928;27.662;2023-11-22T11:53:34;5.25;;;1.65;;
56911;SDS011;42800;53.928;27.662;2023-11-22T11:56:01;3.00;;;1.90;;
56911;SDS011;42800;53.928;27.662;2023-11-22T11:58:27;4.30;;;2.13;;
56911;SDS011;42800;53.928;27.662;2023-11-22T12:00:54;4.82;;;1.95;;
56911;SDS011;42800;53.928;27.662;2023-11-22T12:03:21;3.72;;;1.75;;
56911;SDS011;42800;53.928;27.662;2023-11-22T12:05:48;2.63;;;1.08;;
56911;SDS011;42800;53.928;27.662;2023-11-22T12:08:15;3.63;;;1.58;;
56911;SDS011;42800;53.928;27.662;2023-11-22T12:10:42;16.42;;;1.95;;
56911;SDS011;42800;53.928;27.662;2023-11-22T12:13:09;5.20;;;2.28;;
56911;SDS011;42800;53.928;27.662;2023-11-22T12:15:35;4.72;;;1.65;;
56911;SDS011;42800;53.928;27.662;2023-11-22T12:18:03;2.67;;;1.70;;
56911;SDS011;42800;53.928;27.662;2023-11-22T12:20:30;5.18;;;2.88;;
56911;SDS011;42800;53.928;27.662;2023-11-22T12:22:57;4.15;;;2.03;;
56911;SDS011;42800;53.928;27.662;2023-11-22T12:25:26;1.48;;;1.33;;
56911;SDS011;42800;53.928;27.662;2023-11-22T12:27:53;9.48;;;2.40;;
56911;SDS011;42800;53.928;27.662;2023-11-22T12:30:29;5.07;;;2.50;;
56911;SDS011;42800;53.928;27.662;2023-11-22T12:33:00;5.05;;;2.30;;
56911;SDS011;42800;53.928;27.662;2023-11-22T12:35:28;5.25;;;2.60;;
56911;SDS011;42800;53.928;27.662;2023-11-22T12:37:56;6.18;;;2.70;;
56911;SDS011;42800;53.928;27.662;2023-11-22T12:40:24;4.22;;;2.20;;
56911;SDS011;42800;53.928;27.662;2023-11-22T12:42:53;7.18;;;2.90;;
56911;SDS011;42800;53.928;27.662;2023-11-22T12:45:20;4.18;;;2.38;;
56911;SDS011;42800;53.928;27.662;2023-11-22T12:47:49;4.25;;;2.33;;
56911;SDS011;42800;53.928;27.662;2023-11-22T12:50:34;5.18;;;3.30;;
56911;SDS011;42800;53.928;27.662;2023-11-22T12:53:10;6.07;;;2.70;;
56911;SDS011;42800;53.928;27.662;2023-11-22T12:55:37;4.45;;;2.75;;
56911;SDS011;42800;53.928;27.662;2023-11-22T12:58:08;5.55;;;2.92;;
56911;SDS011;42800;53.928;27.662;2023-11-22T13:00:34;4.28;;;2.70;;
56911;SDS011;42800;53.928;27.662;2023-11-22T13:03:01;5.20;;;3.03;;
56911;SDS011;42800;53.928;27.662;2023-11-22T13:05:28;14.25;;;3.00;;
56911;SDS011;42800;53.928;27.662;2023-11-22T13:07:55;19.15;;;3.17;;
56911;SDS011;42800;53.928;27.662;2023-11-22T13:10:21;11.02;;;2.90;;
56911;SDS011;42800;53.928;27.662;2023-11-22T13:12:51;3.20;;;2.00;;
56911;SDS011;42800;53.928;27.662;2023-11-22T13:15:19;4.55;;;2.20;;
56911;SDS011;42800;53.928;27.662;2023-11-22T13:17:48;4.72;;;2.65;;
56911;SDS011;42800;53.928;27.662;2023-11-22T13:20:15;4.20;;;2.33;;
56911;SDS011;42800;53.928;27.662;2023-11-22T13:22:41;4.78;;;2.35;;
56911;SDS011;42800;53.928;27.662;2023-11-22T13:25:08;6.40;;;2.97;;
56911;SDS011;42800;53.928;27.662;2023-11-22T13:27:35;5.18;;;2.53;;
56911;SDS011;42800;53.928;27.662;2023-11-22T13:30:02;13.23;;;2.65;;
56911;SDS011;42800;53.928;27.662;2023-11-22T13:32:30;14.60;;;2.88;;
56911;SDS011;42800;53.928;27.662;2023-11-22T13:34:56;3.88;;;2.38;;
56911;SDS011;42800;53.928;27.662;2023-11-22T13:37:23;7.28;;;2.65;;
56911;SDS011;42800;53.928;27.662;2023-11-22T13:39:49;3.50;;;2.30;;
56911;SDS011;42800;53.928;27.662;2023-11-22T13:42:16;4.30;;;2.35;;
56911;SDS011;42800;53.928;27.662;2023-11-22T13:44:43;4.90;;;2.70;;
56911;SDS011;42800;53.928;27.662;2023-11-22T13:47:09;6.85;;;2.53;;
56911;SDS011;42800;53.928;27.662;2023-11-22T13:49:36;2.90;;;1.85;;
56911;SDS011;42800;53.928;27.662;2023-11-22T13:52:02;4.22;;;2.47;;
56911;SDS011;42800;53.928;27.662;2023-11-22T13:54:29;2.63;;;1.80;;
56911;SDS011;42800;53.928;27.662;2023-11-22T13:56:57;4.30;;;2.55;;
56911;SDS011;42800;53.928;27.662;2023-11-22T13:59:24;4.70;;;2.25;;
56911;SDS011;42800;53.928;27.662;2023-11-22T14:01:50;6.07;;;2.70;;
56911;SDS011;42800;53.928;27.662;2023-11-22T14:04:17;2.63;;;2.00;;
56911;SDS011;42800;53.928;27.662;2023-11-22T14:06:43;5.40;;;2.55;;
56911;SDS011;42800;53.928;27.662;2023-11-22T14:09:09;4.18;;;2.40;;
56911;SDS011;42800;53.928;27.662;2023-11-22T14:11:38;4.75;;;3.00;;
56911;SDS011;42800;53.928;27.662;2023-11-22T14:14:04;10.45;;;2.40;;
56911;SDS011;42800;53.928;27.662;2023-11-22T14:16:31;3.75;;;2.60;;
56911;SDS011;42800;53.928;27.662;2023-11-22T14:18:59;5.97;;;2.80;;
56911;SDS011;42800;53.928;27.662;2023-11-22T14:21:25;5.18;;;2.60;;
56911;SDS011;42800;53.928;27.662;2023-11-22T14:23:53;10.43;;;2.63;;
56911;SDS011;42800;53.928;27.662;2023-11-22T14:26:20;3.42;;;2.08;;
56911;SDS011;42800;53.928;27.662;2023-11-22T14:28:48;4.93;;;2.55;;
56911;SDS011;42800;53.928;27.662;2023-11-22T14:31:15;5.40;;;2.28;;
56911;SDS011;42800;53.928;27.662;2023-11-22T14:33:42;6.68;;;2.45;;